createdAt,value
2022-10-13T00:00:59.082Z,24.55
2022-10-13T00:03:29.574Z,23.23
2022-10-13T00:05:58.599Z,24.92
2022-10-13T00:08:27.627Z,23.65
2022-10-13T00:10:56.657Z,24.40
2022-10-13T00:13:25.837Z,24.05
2022-10-13T00:15:55.289Z,24.58
2022-10-13T00:18:24.912Z,25.05
2022-10-13T00:20:55.479Z,23.55
2022-10-13T00:23:24.839Z,24.83
2022-10-13T00:25:53.869Z,24.48
2022-10-13T00:28:23.030Z,26.90
2022-10-13T00:30:52.093Z,26.48
2022-10-13T00:33:21.287Z,27.15
2022-10-13T00:35:51.411Z,26.73
2022-10-13T00:38:24.330Z,25.02
2022-10-13T00:40:56.649Z,24.23
2022-10-13T00:43:29.147Z,24.05
2022-10-13T00:45:58.131Z,22.67
2022-10-13T00:48:31.496Z,23.10
2022-10-13T00:51:00.632Z,22.70
2022-10-13T00:53:37.574Z,22.27
2022-10-13T00:56:10.625Z,21.83
2022-10-13T00:58:41.302Z,21.02
2022-10-13T01:01:10.452Z,21.48
2022-10-13T01:03:39.797Z,21.90
2022-10-13T01:06:10.151Z,21.30
2022-10-13T01:08:40.608Z,20.60
2022-10-13T01:11:35.129Z,22.00
2022-10-13T01:14:14.865Z,20.92
2022-10-13T01:16:51.949Z,18.98
2022-10-13T01:20:05.796Z,18.70
2022-10-13T01:22:54.261Z,18.60
2022-10-13T01:25:50.391Z,20.92
2022-10-13T01:28:49.426Z,20.15
2022-10-13T01:31:25.795Z,19.10
2022-10-13T01:34:05.365Z,19.85
2022-10-13T01:36:41.021Z,21.17
2022-10-13T01:39:21.852Z,19.40
2022-10-13T01:41:55.593Z,18.48
2022-10-13T01:44:31.000Z,20.85
2022-10-13T01:47:04.119Z,23.10
2022-10-13T01:49:37.181Z,22.90
2022-10-13T01:52:11.624Z,20.33
2022-10-13T01:54:40.860Z,21.27
2022-10-13T01:57:31.804Z,19.27
2022-10-13T02:00:04.026Z,20.05
2022-10-13T02:02:54.736Z,18.35
2022-10-13T02:05:39.808Z,18.50
2022-10-13T02:08:16.708Z,19.20
2022-10-13T02:10:51.814Z,26.45
2022-10-13T02:13:25.832Z,30.10
2022-10-13T02:16:01.123Z,33.97
2022-10-13T02:18:36.970Z,33.05
2022-10-13T02:21:08.316Z,28.05
2022-10-13T02:23:37.584Z,27.80
2022-10-13T02:26:07.166Z,25.20
2022-10-13T02:28:38.589Z,23.60
2022-10-13T02:31:09.628Z,23.83
2022-10-13T02:33:40.040Z,26.63
2022-10-13T02:36:09.301Z,31.80
2022-10-13T02:38:38.341Z,32.85
2022-10-13T02:41:07.581Z,41.08
2022-10-13T02:43:37.976Z,48.55
2022-10-13T02:46:07.270Z,45.72
2022-10-13T02:48:36.324Z,51.58
2022-10-13T02:51:07.177Z,41.00
2022-10-13T02:53:36.217Z,38.70
2022-10-13T02:56:05.385Z,39.55
2022-10-13T02:58:37.749Z,36.40
2022-10-13T03:01:08.385Z,35.75
2022-10-13T03:03:38.146Z,34.67
2022-10-13T03:06:09.557Z,33.33
2022-10-13T03:08:40.323Z,30.50
2022-10-13T03:11:09.451Z,29.58
2022-10-13T03:13:38.526Z,31.15
2022-10-13T03:16:09.409Z,31.25
2022-10-13T03:18:38.449Z,34.35
2022-10-13T03:21:09.033Z,32.53
2022-10-13T03:23:41.485Z,31.77
2022-10-13T03:26:10.584Z,30.88
2022-10-13T03:28:39.785Z,31.35
2022-10-13T03:31:12.244Z,29.33
2022-10-13T03:33:42.145Z,31.35
2022-10-13T03:36:14.428Z,29.20
2022-10-13T03:38:45.139Z,31.23
2022-10-13T03:41:16.645Z,34.47
2022-10-13T03:43:50.322Z,40.67
2022-10-13T03:46:19.820Z,40.72
2022-10-13T03:48:49.603Z,40.90
2022-10-13T03:51:22.753Z,38.17
2022-10-13T03:53:53.640Z,37.90
2022-10-13T03:56:25.827Z,37.00
2022-10-13T03:58:57.795Z,35.55
2022-10-13T04:01:29.822Z,34.58
2022-10-13T04:04:02.321Z,37.08
2022-10-13T04:06:32.978Z,36.38
2022-10-13T04:09:02.050Z,33.30
2022-10-13T04:11:31.398Z,33.17
2022-10-13T04:14:00.838Z,35.03
2022-10-13T04:16:32.455Z,32.45
2022-10-13T04:19:05.215Z,35.42
2022-10-13T04:21:36.548Z,34.88
2022-10-13T04:24:06.809Z,35.05
2022-10-13T04:26:38.001Z,34.78
2022-10-13T04:29:13.658Z,35.97
2022-10-13T04:31:43.951Z,41.95
2022-10-13T04:34:13.587Z,41.50
2022-10-13T04:36:43.972Z,39.90
2022-10-13T04:39:12.986Z,46.35
2022-10-13T04:41:42.341Z,53.63
2022-10-13T04:44:11.686Z,63.53
2022-10-13T04:46:40.737Z,45.47
2022-10-13T04:49:09.748Z,39.58
2022-10-13T04:51:40.536Z,43.03
2022-10-13T04:54:11.237Z,36.63
2022-10-13T04:56:40.281Z,35.45
2022-10-13T04:59:09.300Z,34.05
2022-10-13T05:01:38.352Z,31.92
2022-10-13T05:04:12.442Z,32.33
2022-10-13T05:07:12.469Z,32.78
2022-10-13T05:09:33.833Z,30.67
2022-10-13T05:12:03.089Z,35.20
2022-10-13T05:14:35.019Z,37.33
2022-10-13T05:17:04.521Z,32.95
2022-10-13T05:19:33.568Z,32.78
2022-10-13T05:22:02.685Z,34.35
2022-10-13T05:24:37.417Z,33.70
2022-10-13T05:27:09.805Z,32.05
2022-10-13T05:29:39.590Z,32.25
2022-10-13T05:32:09.446Z,31.15
2022-10-13T05:34:38.620Z,33.67
2022-10-13T05:37:07.646Z,32.42
2022-10-13T05:39:38.011Z,34.90
2022-10-13T05:42:07.061Z,34.97
2022-10-13T05:44:37.528Z,31.30
2022-10-13T05:47:07.702Z,37.60
2022-10-13T05:49:39.815Z,37.90
2022-10-13T05:52:13.480Z,34.95
2022-10-13T05:54:47.261Z,37.85
2022-10-13T05:57:20.106Z,42.05
2022-10-13T05:59:54.653Z,36.88
2022-10-13T06:02:26.748Z,36.42
2022-10-13T06:04:58.561Z,37.13
2022-10-13T06:07:27.685Z,37.10
2022-10-13T06:09:59.572Z,43.17
2022-10-13T06:12:28.551Z,41.50
2022-10-13T06:14:57.612Z,41.88
2022-10-13T06:17:26.757Z,41.60
2022-10-13T06:19:55.907Z,43.72
2022-10-13T06:22:24.961Z,36.08
2022-10-13T06:25:00.265Z,33.20
2022-10-13T06:27:29.569Z,37.70
2022-10-13T06:29:59.428Z,31.30
2022-10-13T06:32:28.456Z,32.83
2022-10-13T06:34:57.489Z,32.63
2022-10-13T06:37:27.590Z,31.80
2022-10-13T06:39:58.265Z,30.52
2022-10-13T06:42:30.874Z,31.85
2022-10-13T06:45:11.804Z,31.05
2022-10-13T06:47:42.586Z,29.55
2022-10-13T06:50:11.729Z,28.00
2022-10-13T06:52:40.804Z,28.30
2022-10-13T06:55:11.477Z,27.77
2022-10-13T06:57:40.568Z,27.55
2022-10-13T07:00:11.565Z,28.23
2022-10-13T07:02:41.122Z,26.55
2022-10-13T07:05:10.630Z,26.25
2022-10-13T07:07:39.646Z,26.52
2022-10-13T07:10:10.843Z,25.65
2022-10-13T07:12:39.905Z,28.33
2022-10-13T07:15:10.130Z,26.33
2022-10-13T07:17:41.638Z,26.45
2022-10-13T07:20:11.778Z,27.58
2022-10-13T07:22:40.849Z,26.35
2022-10-13T07:25:11.660Z,25.35
2022-10-13T07:27:41.114Z,24.92
2022-10-13T07:30:11.257Z,25.75
2022-10-13T07:32:42.130Z,26.90
2022-10-13T07:35:12.244Z,28.90
2022-10-13T07:37:41.327Z,26.58
2022-10-13T07:40:13.068Z,24.02
2022-10-13T07:42:42.126Z,24.60
2022-10-13T07:45:12.379Z,23.70
2022-10-13T07:47:41.399Z,23.70
2022-10-13T07:50:11.956Z,23.45
2022-10-13T07:52:40.992Z,22.67
2022-10-13T07:55:14.789Z,21.00
2022-10-13T07:57:43.862Z,19.23
2022-10-13T08:00:14.208Z,19.77
2022-10-13T08:02:43.369Z,19.50
2022-10-13T08:05:12.456Z,19.10
2022-10-13T08:07:41.666Z,20.75
2022-10-13T08:10:11.117Z,19.35
2022-10-13T08:12:41.700Z,19.67
2022-10-13T08:15:12.045Z,19.60
2022-10-13T08:17:41.128Z,20.67
2022-10-13T08:20:11.148Z,20.55
2022-10-13T08:22:40.461Z,19.35
2022-10-13T08:25:10.756Z,19.95
2022-10-13T08:27:51.169Z,20.70
2022-10-13T08:30:21.255Z,21.02
2022-10-13T08:32:50.625Z,20.45
2022-10-13T08:35:19.642Z,23.00
2022-10-13T08:37:48.723Z,23.52
2022-10-13T08:40:23.056Z,22.58
2022-10-13T08:42:58.074Z,24.77
2022-10-13T08:45:46.931Z,24.58
2022-10-13T08:48:19.881Z,24.27
2022-10-13T08:50:52.591Z,23.30
2022-10-13T08:53:30.784Z,23.65
2022-10-13T08:56:03.942Z,23.48
2022-10-13T08:58:40.041Z,23.85
2022-10-13T09:01:16.370Z,22.73
2022-10-13T09:03:55.559Z,21.17
2022-10-13T09:06:28.794Z,23.38
2022-10-13T09:09:01.545Z,23.85
2022-10-13T09:11:33.941Z,24.42
2022-10-13T09:14:07.476Z,22.42
2022-10-13T09:16:40.027Z,24.60
2022-10-13T09:19:22.880Z,23.30
2022-10-13T09:21:54.086Z,22.70
2022-10-13T09:24:26.511Z,22.30
2022-10-13T09:27:08.048Z,23.00
2022-10-13T09:29:43.718Z,22.08
2022-10-13T09:32:19.757Z,22.35
2022-10-13T09:34:50.031Z,21.05
2022-10-13T09:37:22.610Z,20.95
2022-10-13T09:40:15.321Z,21.48
2022-10-13T09:42:52.924Z,22.73
2022-10-13T09:45:27.728Z,19.92
2022-10-13T09:48:03.819Z,22.38
2022-10-13T09:50:36.025Z,22.55
2022-10-13T09:53:22.357Z,23.45
2022-10-13T09:55:52.669Z,21.83
2022-10-13T09:58:29.248Z,21.00
2022-10-13T10:01:01.007Z,22.67
2022-10-13T10:03:36.772Z,21.30
2022-10-13T10:09:02.606Z,20.85
2022-10-13T10:11:38.995Z,22.27
2022-10-13T10:14:18.469Z,23.08
2022-10-13T10:17:00.739Z,23.33
2022-10-13T10:19:45.235Z,21.90
2022-10-13T10:22:24.744Z,21.00
2022-10-13T10:25:01.448Z,21.65
2022-10-13T10:27:42.869Z,21.98
2022-10-13T10:30:17.610Z,21.52
2022-10-13T10:32:55.094Z,20.67
2022-10-13T10:35:41.044Z,21.98
2022-10-13T10:38:27.235Z,20.42
2022-10-13T10:41:06.387Z,21.88
2022-10-13T10:43:53.195Z,20.90
2022-10-13T10:46:25.428Z,20.27
2022-10-13T10:49:01.666Z,21.33
2022-10-13T10:51:36.714Z,22.13
2022-10-13T10:54:27.852Z,23.58
2022-10-13T10:57:03.393Z,21.10
2022-10-13T10:59:50.212Z,21.92
2022-10-13T11:02:45.951Z,22.80
2022-10-13T11:05:18.794Z,20.55
2022-10-13T11:08:01.159Z,23.58
2022-10-13T11:10:30.776Z,23.08
2022-10-13T11:13:25.884Z,22.08
2022-10-13T11:15:57.322Z,24.00
2022-10-13T11:19:07.365Z,22.77
2022-10-13T11:22:20.875Z,22.90
2022-10-13T11:25:08.825Z,21.27
2022-10-13T11:27:47.293Z,24.88
2022-10-13T11:30:51.563Z,22.45
2022-10-13T11:33:59.255Z,22.60
2022-10-13T11:36:49.343Z,24.30
2022-10-13T11:40:06.958Z,22.75
2022-10-13T11:43:17.428Z,22.27
2022-10-13T11:46:26.421Z,21.20
2022-10-13T11:49:44.973Z,21.73
2022-10-13T11:52:49.970Z,20.90
2022-10-13T11:55:39.375Z,18.80
2022-10-13T11:58:17.338Z,21.13
2022-10-13T12:01:00.159Z,20.67
2022-10-13T12:03:32.552Z,19.30
2022-10-13T12:06:07.503Z,18.90
2022-10-13T12:08:39.307Z,18.33
2022-10-13T12:11:26.626Z,19.48
2022-10-13T12:13:57.044Z,20.35
2022-10-13T12:16:31.251Z,18.98
2022-10-13T12:19:20.232Z,19.30
2022-10-13T12:21:52.447Z,17.05
2022-10-13T12:24:26.823Z,17.38
2022-10-13T12:26:59.218Z,17.13
2022-10-13T12:29:37.395Z,17.42
2022-10-13T12:32:21.017Z,16.10
2022-10-13T12:34:55.067Z,15.55
2022-10-13T12:37:33.557Z,16.58
2022-10-13T12:40:04.729Z,15.50
2022-10-13T12:42:39.745Z,17.27
2022-10-13T12:45:16.703Z,16.20
2022-10-13T12:47:52.334Z,16.75
2022-10-13T12:50:39.572Z,16.52
2022-10-13T12:53:20.163Z,16.05
2022-10-13T12:55:58.830Z,16.30
2022-10-13T12:58:32.163Z,15.65
2022-10-13T13:01:33.281Z,16.08
2022-10-13T13:04:17.205Z,17.35
2022-10-13T13:06:57.560Z,15.80
2022-10-13T13:09:29.508Z,17.27
2022-10-13T13:12:27.559Z,16.13
2022-10-13T13:14:58.462Z,16.08
2022-10-13T13:17:53.352Z,15.15
2022-10-13T13:20:27.001Z,17.10
2022-10-13T13:22:56.817Z,15.88
2022-10-13T13:25:26.906Z,14.98
2022-10-13T13:27:55.995Z,13.77
2022-10-13T13:30:27.401Z,14.70
2022-10-13T13:32:56.404Z,13.70
2022-10-13T13:35:25.407Z,12.23
2022-10-13T13:37:58.488Z,13.80
2022-10-13T13:40:29.390Z,14.18
2022-10-13T13:42:58.437Z,12.98
2022-10-13T13:45:35.858Z,14.75
2022-10-13T13:48:05.937Z,14.27
2022-10-13T13:50:37.792Z,13.80
2022-10-13T13:53:07.335Z,14.68
2022-10-13T13:55:36.686Z,14.70
2022-10-13T13:58:07.588Z,12.80
2022-10-13T14:00:38.493Z,13.60
2022-10-13T14:03:07.697Z,13.05
2022-10-13T14:05:40.613Z,12.30
2022-10-13T14:08:10.930Z,13.23
2022-10-13T14:10:41.359Z,12.05
2022-10-13T14:13:10.368Z,11.73
2022-10-13T14:15:40.793Z,11.85
2022-10-13T14:18:09.845Z,13.07
2022-10-13T14:20:42.538Z,12.25
2022-10-13T14:23:11.639Z,11.80
2022-10-13T14:25:40.662Z,12.38
2022-10-13T14:28:12.494Z,11.65
2022-10-13T14:30:45.038Z,11.60
2022-10-13T14:33:19.245Z,11.73
2022-10-13T14:35:48.340Z,12.07
2022-10-13T14:38:18.627Z,11.98
2022-10-13T14:40:49.916Z,11.68
2022-10-13T14:43:19.025Z,12.20
2022-10-13T14:45:49.501Z,11.07
2022-10-13T14:48:22.630Z,11.95
2022-10-13T14:50:53.688Z,12.20
2022-10-13T14:53:24.592Z,11.65
2022-10-13T14:55:54.063Z,12.43
2022-10-13T14:58:23.043Z,12.55
2022-10-13T15:00:53.740Z,13.35
2022-10-13T15:03:22.996Z,13.35
2022-10-13T15:05:52.109Z,14.05
2022-10-13T15:08:25.513Z,13.40
2022-10-13T15:11:00.840Z,13.20
2022-10-13T15:13:30.443Z,13.25
2022-10-13T15:16:02.579Z,13.82
2022-10-13T15:18:32.042Z,15.00
2022-10-13T15:21:01.290Z,15.30
2022-10-13T15:23:30.416Z,13.85
2022-10-13T15:26:01.467Z,14.73
2022-10-13T15:28:35.732Z,14.75
2022-10-13T15:31:06.851Z,16.80
2022-10-13T15:33:36.435Z,16.38
2022-10-13T15:36:05.974Z,15.82
2022-10-13T15:38:35.641Z,17.08
2022-10-13T15:41:06.920Z,16.10
2022-10-13T15:43:36.257Z,17.88
2022-10-13T15:46:09.606Z,17.58
2022-10-13T15:48:38.836Z,18.13
2022-10-13T15:51:14.815Z,17.95
2022-10-13T15:53:44.023Z,17.55
2022-10-13T15:56:13.157Z,17.77
2022-10-13T15:58:42.418Z,17.73
2022-10-13T16:01:15.154Z,18.63
2022-10-13T16:03:44.284Z,18.70
2022-10-13T16:06:14.416Z,18.65
2022-10-13T16:08:44.795Z,20.05
2022-10-13T16:11:16.862Z,22.25
2022-10-13T16:13:47.832Z,24.65
2022-10-13T16:16:19.110Z,22.25
2022-10-13T16:18:48.205Z,21.70
2022-10-13T16:21:20.146Z,20.30
2022-10-13T16:23:50.150Z,20.38
2022-10-13T16:26:19.424Z,20.38
2022-10-13T16:28:48.719Z,20.63
2022-10-13T16:31:19.191Z,20.63
2022-10-13T16:33:48.220Z,20.50
2022-10-13T16:36:19.345Z,20.88
2022-10-13T16:38:54.766Z,19.90
2022-10-13T16:41:24.633Z,20.52
2022-10-13T16:43:53.683Z,20.90
2022-10-13T16:46:24.253Z,20.65
2022-10-13T16:48:53.320Z,20.98
2022-10-13T16:51:25.178Z,19.00
2022-10-13T16:54:02.805Z,18.70
2022-10-13T16:56:33.591Z,20.45
2022-10-13T16:59:05.530Z,22.60
2022-10-13T17:01:37.330Z,25.95
2022-10-13T17:04:07.525Z,25.85
2022-10-13T17:06:38.693Z,26.17
2022-10-13T17:09:07.772Z,25.88
2022-10-13T17:11:37.338Z,25.48
2022-10-13T17:14:07.406Z,22.30
2022-10-13T17:16:37.945Z,19.50
2022-10-13T17:19:07.330Z,20.58
2022-10-13T17:21:38.379Z,21.63
2022-10-13T17:24:10.967Z,22.08
2022-10-13T17:26:40.375Z,21.65
2022-10-13T17:29:09.438Z,23.83
2022-10-13T17:31:39.957Z,26.25
2022-10-13T17:34:09.334Z,30.85
2022-10-13T17:36:38.444Z,32.65
2022-10-13T17:39:12.170Z,31.02
2022-10-13T17:41:43.988Z,33.42
2022-10-13T17:44:13.001Z,28.98
2022-10-13T17:46:43.469Z,27.48
2022-10-13T17:49:13.861Z,25.73
2022-10-13T17:51:44.816Z,25.90
2022-10-13T17:54:16.426Z,28.27
2022-10-13T17:56:46.305Z,26.00
2022-10-13T17:59:16.412Z,27.15
2022-10-13T18:01:47.128Z,28.25
2022-10-13T18:04:19.845Z,31.48
2022-10-13T18:06:49.073Z,26.77
2022-10-13T18:09:23.309Z,26.15
2022-10-13T18:11:55.187Z,27.70
2022-10-13T18:14:26.028Z,29.85
2022-10-13T18:16:56.511Z,28.42
2022-10-13T18:19:25.645Z,30.15
2022-10-13T18:21:54.911Z,29.95
2022-10-13T18:24:25.119Z,31.20
2022-10-13T18:26:57.012Z,34.40
2022-10-13T18:29:26.206Z,31.33
2022-10-13T18:31:57.490Z,34.22
2022-10-13T18:34:26.572Z,31.85
2022-10-13T18:36:56.061Z,29.85
2022-10-13T18:39:27.293Z,32.00
2022-10-13T18:41:58.010Z,31.10
2022-10-13T18:44:36.121Z,30.90
2022-10-13T18:47:07.012Z,32.72
2022-10-13T18:49:36.038Z,34.08
2022-10-13T18:52:05.557Z,33.72
2022-10-13T18:54:38.737Z,34.30
2022-10-13T18:57:08.131Z,35.67
2022-10-13T18:59:38.796Z,33.55
2022-10-13T19:02:14.531Z,35.65
2022-10-13T19:04:44.240Z,37.08
2022-10-13T19:07:13.293Z,36.60
2022-10-13T19:09:42.503Z,36.92
2022-10-13T19:12:11.650Z,38.58
2022-10-13T19:14:40.955Z,36.60
2022-10-13T19:17:11.778Z,36.58
2022-10-13T19:19:41.521Z,38.45
2022-10-13T19:22:12.454Z,36.90
2022-10-13T19:24:41.730Z,40.55
2022-10-13T19:27:11.718Z,43.03
2022-10-13T19:29:41.931Z,40.25
2022-10-13T19:32:14.216Z,41.38
2022-10-13T19:34:43.509Z,39.00
2022-10-13T19:37:16.423Z,34.97
2022-10-13T19:39:45.466Z,33.00
2022-10-13T19:42:14.599Z,31.92
2022-10-13T19:44:44.480Z,31.70
2022-10-13T19:47:14.911Z,31.00
2022-10-13T19:49:43.946Z,30.45
2022-10-13T19:52:12.932Z,28.70
2022-10-13T19:54:42.533Z,26.75
2022-10-13T19:57:11.606Z,30.55
2022-10-13T19:59:45.302Z,30.08
2022-10-13T20:02:19.513Z,29.73
2022-10-13T20:04:48.715Z,32.17
2022-10-13T20:07:17.936Z,31.80
2022-10-13T20:09:47.398Z,34.42
2022-10-13T20:12:16.457Z,34.58
2022-10-13T20:14:48.609Z,32.95
2022-10-13T20:17:19.290Z,34.17
2022-10-13T20:19:48.672Z,35.42
2022-10-13T20:22:17.714Z,35.35
2022-10-13T20:24:46.916Z,35.35
2022-10-13T20:27:16.006Z,37.28
2022-10-13T20:29:45.032Z,35.90
2022-10-13T20:32:15.200Z,39.67
2022-10-13T20:34:45.713Z,41.60
2022-10-13T20:37:14.857Z,41.03
2022-10-13T20:39:44.157Z,39.22
2022-10-13T20:42:15.732Z,38.60
2022-10-13T20:44:44.934Z,39.05
2022-10-13T20:47:14.077Z,39.17
2022-10-13T20:49:43.498Z,39.17
2022-10-13T20:52:13.889Z,40.13
2022-10-13T20:54:43.052Z,37.15
2022-10-13T20:57:12.221Z,39.03
2022-10-13T20:59:41.402Z,38.97
2022-10-13T21:02:13.859Z,38.03
2022-10-13T21:04:43.068Z,37.20
2022-10-13T21:07:13.604Z,40.90
2022-10-13T21:09:42.752Z,43.58
2022-10-13T21:12:11.816Z,45.38
2022-10-13T21:14:40.906Z,42.63
2022-10-13T21:17:11.501Z,43.20
2022-10-13T21:19:40.752Z,40.13
2022-10-13T21:22:09.849Z,40.95
2022-10-13T21:24:40.316Z,41.22
2022-10-13T21:27:09.315Z,39.28
2022-10-13T21:29:38.421Z,41.17
2022-10-13T21:32:07.621Z,38.88
2022-10-13T21:34:37.487Z,38.85
2022-10-13T21:37:06.529Z,40.80
2022-10-13T21:39:35.812Z,41.00
2022-10-13T21:42:06.596Z,39.95
2022-10-13T21:44:35.659Z,40.75
2022-10-13T21:47:08.292Z,40.78
2022-10-13T21:49:37.688Z,41.38
2022-10-13T21:52:06.800Z,40.50
2022-10-13T21:54:35.937Z,40.70
2022-10-13T21:57:06.382Z,38.47
2022-10-13T21:59:35.504Z,38.10
2022-10-13T22:02:04.673Z,39.28
2022-10-13T22:04:33.788Z,37.65
2022-10-13T22:07:03.032Z,39.50
2022-10-13T22:09:32.784Z,41.97
2022-10-13T22:12:02.239Z,42.25
2022-10-13T22:14:33.449Z,43.83
2022-10-13T22:17:07.885Z,42.00
2022-10-13T22:19:37.084Z,41.65
2022-10-13T22:22:06.242Z,43.10
2022-10-13T22:24:35.291Z,44.03
2022-10-13T22:27:04.619Z,44.13
2022-10-13T22:29:35.367Z,41.25
2022-10-13T22:32:04.519Z,39.33
2022-10-13T22:34:33.553Z,40.22
2022-10-13T22:37:02.933Z,39.60
2022-10-13T22:39:33.872Z,39.28
2022-10-13T22:42:10.461Z,36.15
2022-10-13T22:44:43.624Z,36.10
2022-10-13T22:47:12.745Z,38.33
2022-10-13T22:49:41.739Z,38.30
2022-10-13T22:52:11.496Z,39.47
2022-10-13T22:54:40.572Z,36.58
2022-10-13T22:57:11.729Z,38.20
2022-10-13T22:59:42.363Z,37.38
2022-10-13T23:02:11.490Z,41.10
2022-10-13T23:04:40.859Z,37.85
2022-10-13T23:07:09.905Z,38.22
2022-10-13T23:09:38.901Z,37.90
2022-10-13T23:12:10.956Z,39.47
2022-10-13T23:14:41.396Z,38.15
2022-10-13T23:17:10.490Z,38.17
2022-10-13T23:19:39.509Z,39.05
2022-10-13T23:22:11.672Z,41.03
2022-10-13T23:24:40.624Z,38.47
2022-10-13T23:27:09.622Z,39.97
2022-10-13T23:29:38.689Z,39.60
2022-10-13T23:32:10.064Z,37.30
2022-10-13T23:34:39.205Z,40.22
2022-10-13T23:37:09.497Z,38.53
2022-10-13T23:39:39.044Z,38.67
2022-10-13T23:42:11.162Z,37.10
2022-10-13T23:44:40.288Z,38.22
2022-10-13T23:47:10.688Z,39.67
2022-10-13T23:49:39.893Z,38.88
2022-10-13T23:52:11.083Z,35.55
2022-10-13T23:54:40.302Z,36.28
2022-10-13T23:57:09.326Z,35.67
2022-10-13T23:59:38.387Z,38.60
